Time;durP1;ratioP1;P1;durP2;ratioP2;P2;SDS_P1;SDS_P2;PMS_P1;PMS_P2;Temp;Humidity;BMP_temperature;BMP_pressure;BME280_temperature;BME280_humidity;BME280_pressure;Samples;Min_cycle;Max_cycle;Signal;HPM_P1;HPM_P2
2020/06/08 00:00:09;;;;;;;2;1.9;;;;;;;9.21;100;94871.91;;;;
2020/06/08 00:06:29;;;;;;;3;2;;;;;;;9.2;100;94862.06;;;;
2020/06/08 00:07:30;;;;;;;3;2;;;;;;;9.2;100;94862.06;;;;
2020/06/08 00:08:31;;;;;;;3;2;;;;;;;9.2;100;94862.06;;;;
2020/06/08 00:09:35;;;;;;;3;2;;;;;;;9.2;100;94862.06;;;;
2020/06/08 00:10:42;;;;;;;3;2;;;;;;;9.2;100;94862.06;;;;
2020/06/08 00:11:44;;;;;;;3;2;;;;;;;9.2;100;94862.06;;;;
2020/06/08 00:12:45;;;;;;;2.05;1.95;;;;;;;9.15;100;94858.86;;;;
2020/06/08 00:13:46;;;;;;;2.05;1.95;;;;;;;9.15;100;94858.86;;;;
2020/06/08 00:15:28;;;;;;;2.05;1.95;;;;;;;9.15;100;94858.86;;;;
2020/06/08 00:16:52;;;;;;;2.05;1.95;;;;;;;9.15;100;94858.86;;;;
2020/06/08 00:23:16;;;;;;;3.05;2.3;;;;;;;9.19;100;94859.2;;;;
2020/06/08 00:24:27;;;;;;;3.05;2.3;;;;;;;9.19;100;94859.2;;;;
2020/06/08 00:25:36;;;;;;;3.05;2.3;;;;;;;9.19;100;94859.2;;;;
2020/06/08 00:26:44;;;;;;;3.05;2.3;;;;;;;9.19;100;94859.2;;;;
2020/06/08 00:27:51;;;;;;;3.05;2.3;;;;;;;9.19;100;94859.2;;;;
2020/06/08 00:28:58;;;;;;;3.05;2.3;;;;;;;9.19;100;94859.2;;;;
2020/06/08 00:30:21;;;;;;;3.05;2.3;;;;;;;9.19;100;94859.2;;;;
2020/06/08 00:32:25;;;;;;;3.05;2.3;;;;;;;9.19;100;94859.2;;;;
2020/06/08 00:33:28;;;;;;;3.05;2.3;;;;;;;9.19;100;94859.2;;;;
2020/06/08 00:34:28;;;;;;;1.9;1.8;;;;;;;9.16;100;94852.92;;;;
2020/06/08 00:35:29;;;;;;;1.9;1.8;;;;;;;9.16;100;94852.92;;;;
2020/06/08 00:36:30;;;;;;;1.9;1.8;;;;;;;9.16;100;94852.92;;;;
2020/06/08 00:37:30;;;;;;;1.9;1.8;;;;;;;9.16;100;94852.92;;;;
2020/06/08 00:38:31;;;;;;;1.9;1.8;;;;;;;9.16;100;94852.92;;;;
2020/06/08 00:39:31;;;;;;;1.9;1.8;;;;;;;9.16;100;94852.92;;;;
2020/06/08 00:40:31;;;;;;;1.9;1.8;;;;;;;9.16;100;94852.92;;;;
2020/06/08 00:41:32;;;;;;;1.9;1.8;;;;;;;9.16;100;94852.92;;;;
2020/06/08 00:42:32;;;;;;;1.9;1.8;;;;;;;9.16;100;94852.92;;;;
2020/06/08 00:43:33;;;;;;;1.9;1.8;;;;;;;9.16;100;94852.92;;;;
2020/06/08 00:44:33;;;;;;;2.5;2.299999;;;;;;;9.17;100;94861.72;;;;
2020/06/08 00:45:34;;;;;;;2.5;2.299999;;;;;;;9.17;100;94861.72;;;;
2020/06/08 00:46:34;;;;;;;2.5;2.299999;;;;;;;9.17;100;94861.72;;;;
2020/06/08 00:47:35;;;;;;;2.5;2.299999;;;;;;;9.17;100;94861.72;;;;
2020/06/08 00:48:35;;;;;;;2.5;2.299999;;;;;;;9.17;100;94861.72;;;;
2020/06/08 00:49:36;;;;;;;2.5;2.299999;;;;;;;9.17;100;94861.72;;;;
2020/06/08 00:50:36;;;;;;;2.5;2.299999;;;;;;;9.17;100;94861.72;;;;
2020/06/08 00:51:37;;;;;;;2.5;2.299999;;;;;;;9.17;100;94861.72;;;;
2020/06/08 00:52:37;;;;;;;2.5;2.299999;;;;;;;9.17;100;94861.72;;;;
2020/06/08 00:53:37;;;;;;;2.5;2.299999;;;;;;;9.17;100;94861.72;;;;
2020/06/08 00:54:38;;;;;;;2.5;2.299999;;;;;;;9.17;100;94861.72;;;;
2020/06/08 00:55:38;;;;;;;2.4;2.2;;;;;;;9.14;100;94849.13;;;;
2020/06/08 00:56:39;;;;;;;2.4;2.2;;;;;;;9.14;100;94849.13;;;;
2020/06/08 00:57:39;;;;;;;2.4;2.2;;;;;;;9.14;100;94849.13;;;;
2020/06/08 00:58:39;;;;;;;2.4;2.2;;;;;;;9.14;100;94849.13;;;;
2020/06/08 00:59:40;;;;;;;2.4;2.2;;;;;;;9.14;100;94849.13;;;;
2020/06/08 01:00:41;;;;;;;2.4;2.2;;;;;;;9.14;100;94849.13;;;;
2020/06/08 01:06:54;;;;;;;2.6;2.4;;;;;;;9.17;100;94835.62;;;;
2020/06/08 01:07:55;;;;;;;2.6;2.4;;;;;;;9.17;100;94835.62;;;;
2020/06/08 01:08:56;;;;;;;2.6;2.4;;;;;;;9.17;100;94835.62;;;;
2020/06/08 01:09:56;;;;;;;2.6;2.4;;;;;;;9.17;100;94835.62;;;;
2020/06/08 01:10:57;;;;;;;2.6;2.4;;;;;;;9.17;100;94835.62;;;;
2020/06/08 01:11:57;;;;;;;2.6;2.4;;;;;;;9.17;100;94835.62;;;;
2020/06/08 01:13:03;;;;;;;2.6;2.4;;;;;;;9.17;100;94835.62;;;;
2020/06/08 01:14:17;;;;;;;2.6;2.4;;;;;;;9.17;100;94835.62;;;;
2020/06/08 01:15:27;;;;;;;2.6;2.4;;;;;;;9.17;100;94835.62;;;;
2020/06/08 01:16:37;;;;;;;2.55;2.35;;;;;;;9.15;100;94835.97;;;;
2020/06/08 01:17:48;;;;;;;2.55;2.35;;;;;;;9.15;100;94835.97;;;;
2020/06/08 01:18:53;;;;;;;2.55;2.35;;;;;;;9.15;100;94835.97;;;;
2020/06/08 01:20:15;;;;;;;2.55;2.35;;;;;;;9.15;100;94835.97;;;;
2020/06/08 01:21:21;;;;;;;2.55;2.35;;;;;;;9.15;100;94835.97;;;;
2020/06/08 01:22:24;;;;;;;2.55;2.35;;;;;;;9.15;100;94835.97;;;;
2020/06/08 01:23:30;;;;;;;2.55;2.35;;;;;;;9.15;100;94835.97;;;;
2020/06/08 01:25:42;;;;;;;2.55;2.35;;;;;;;9.15;100;94835.97;;;;
2020/06/08 01:26:52;;;;;;;2.55;2.35;;;;;;;9.15;100;94835.97;;;;
2020/06/08 01:27:59;;;;;;;2.9;2.45;;;;;;;9.21;100;94838.23;;;;
2020/06/08 01:30:14;;;;;;;2.9;2.45;;;;;;;9.21;100;94838.23;;;;
2020/06/08 01:31:54;;;;;;;2.9;2.45;;;;;;;9.21;100;94838.23;;;;
2020/06/08 01:33:00;;;;;;;2.9;2.45;;;;;;;9.21;100;94838.23;;;;
2020/06/08 01:34:07;;;;;;;2.9;2.45;;;;;;;9.21;100;94838.23;;;;
2020/06/08 01:35:12;;;;;;;2.9;2.45;;;;;;;9.21;100;94838.23;;;;
2020/06/08 01:36:19;;;;;;;2.9;2.45;;;;;;;9.21;100;94838.23;;;;
2020/06/08 01:42:43;;;;;;;3.899999;2.7;;;;;;;9.21;100;94838.23;;;;
2020/06/08 01:54:21;;;;;;;6.7;5.299999;;;;;;;9.27;100;94830.53;;;;
2020/06/08 01:55:32;;;;;;;6.7;5.299999;;;;;;;9.27;100;94830.53;;;;
2020/06/08 02:06:59;;;;;;;10.7;6;;;;;;;9.25;100;94826.73;;;;
2020/06/08 02:07:59;;;;;;;10.7;6;;;;;;;9.25;100;94826.73;;;;
2020/06/08 02:09:22;;;;;;;10.7;6;;;;;;;9.25;100;94826.73;;;;
2020/06/08 02:11:35;;;;;;;3.95;3.25;;;;;;;9.31;100;94833.45;;;;
2020/06/08 02:12:43;;;;;;;3.95;3.25;;;;;;;9.31;100;94833.45;;;;
2020/06/08 02:13:53;;;;;;;3.95;3.25;;;;;;;9.31;100;94833.45;;;;
2020/06/08 02:20:04;;;;;;;2.95;2.7;;;;;;;9.28;100;94824.9;;;;
2020/06/08 02:21:17;;;;;;;2.95;2.7;;;;;;;9.28;100;94824.9;;;;
2020/06/08 02:22:25;;;;;;;2.95;2.7;;;;;;;9.28;100;94824.9;;;;
2020/06/08 02:23:33;;;;;;;2.95;2.7;;;;;;;9.28;100;94824.9;;;;
2020/06/08 02:24:40;;;;;;;2.95;2.7;;;;;;;9.28;100;94824.9;;;;
2020/06/08 02:25:48;;;;;;;2.95;2.7;;;;;;;9.28;100;94824.9;;;;
2020/06/08 02:27:10;;;;;;;2.95;2.7;;;;;;;9.28;100;94824.9;;;;
2020/06/08 02:33:37;;;;;;;3;2.5;;;;;;;9.31;100;94826.31;;;;
2020/06/08 02:48:39;;;;;;;3.2;2.65;;;;;;;9.27;100;94819.75;;;;
2020/06/08 02:55:04;;;;;;;3;2.8;;;;;;;9.31;100;94826.72;;;;
2020/06/08 02:56:15;;;;;;;3;2.8;;;;;;;9.31;100;94826.72;;;;
2020/06/08 02:57:29;;;;;;;3;2.8;;;;;;;9.31;100;94826.72;;;;
2020/06/08 02:58:42;;;;;;;3;2.8;;;;;;;9.31;100;94826.72;;;;
2020/06/08 02:59:50;;;;;;;3;2.8;;;;;;;9.31;100;94826.72;;;;
2020/06/08 03:01:25;;;;;;;3;2.8;;;;;;;9.31;100;94826.72;;;;
2020/06/08 03:06:13;;;;;;;3.45;3.15;;;;;;;9.25;100;94829.85;;;;
2020/06/08 03:12:40;;;;;;;3.45;3.15;;;;;;;9.25;100;94829.85;;;;
2020/06/08 03:13:53;;;;;;;4.55;3.95;;;;;;;9.28;100;94826.79;;;;
2020/06/08 03:20:14;;;;;;;4.55;3.95;;;;;;;9.28;100;94826.79;;;;
2020/06/08 03:21:24;;;;;;;4.55;3.95;;;;;;;9.28;100;94826.79;;;;
2020/06/08 03:22:31;;;;;;;4.55;3.95;;;;;;;9.28;100;94826.79;;;;
2020/06/08 03:23:37;;;;;;;4.349999;3.95;;;;;;;9.26;100;94833.78;;;;
2020/06/08 03:24:51;;;;;;;4.349999;3.95;;;;;;;9.26;100;94833.78;;;;
2020/06/08 03:25:57;;;;;;;4.349999;3.95;;;;;;;9.26;100;94833.78;;;;
2020/06/08 03:27:03;;;;;;;4.349999;3.95;;;;;;;9.26;100;94833.78;;;;
2020/06/08 03:28:19;;;;;;;4.349999;3.95;;;;;;;9.26;100;94833.78;;;;
2020/06/08 03:29:27;;;;;;;4.349999;3.95;;;;;;;9.26;100;94833.78;;;;
2020/06/08 03:30:36;;;;;;;4.349999;3.95;;;;;;;9.26;100;94833.78;;;;
2020/06/08 03:40:12;;;;;;;3.7;3.4;;;;;;;9.32;100;94835.08;;;;
2020/06/08 03:41:21;;;;;;;3.7;3.4;;;;;;;9.32;100;94835.08;;;;
2020/06/08 03:42:30;;;;;;;3.7;3.4;;;;;;;9.32;100;94835.08;;;;
2020/06/08 03:43:42;;;;;;;3.7;3.4;;;;;;;9.32;100;94835.08;;;;
2020/06/08 03:45:09;;;;;;;3.7;3.4;;;;;;;9.32;100;94835.08;;;;
2020/06/08 03:51:34;;;;;;;4.3;3.9;;;;;;;9.32;100;94841.82;;;;
2020/06/08 03:52:42;;;;;;;4.3;3.9;;;;;;;9.32;100;94841.82;;;;
2020/06/08 03:54:04;;;;;;;4.3;3.9;;;;;;;9.32;100;94841.82;;;;
2020/06/08 03:55:12;;;;;;;4.3;3.9;;;;;;;9.32;100;94841.82;;;;
2020/06/08 03:56:19;;;;;;;5;4.55;;;;;;;9.39;100;94852.89;;;;
2020/06/08 03:57:29;;;;;;;5;4.55;;;;;;;9.39;100;94852.89;;;;
2020/06/08 04:00:01;;;;;;;5;4.55;;;;;;;9.39;100;94852.89;;;;
2020/06/08 04:03:59;;;;;;;5;4.55;;;;;;;9.39;100;94852.89;;;;
2020/06/08 04:05:09;;;;;;;5;4.55;;;;;;;9.39;100;94852.89;;;;
2020/06/08 04:06:14;;;;;;;4.15;3.750001;;;;;;;9.44;100;94860.14;;;;
2020/06/08 04:07:21;;;;;;;4.15;3.750001;;;;;;;9.44;100;94860.14;;;;
2020/06/08 04:08:21;;;;;;;4.15;3.750001;;;;;;;9.44;100;94860.14;;;;
2020/06/08 04:10:21;;;;;;;4.15;3.750001;;;;;;;9.44;100;94860.14;;;;
2020/06/08 04:11:27;;;;;;;4.15;3.750001;;;;;;;9.44;100;94860.14;;;;
2020/06/08 04:22:56;;;;;;;5.299999;4.15;;;;;;;9.66;100;94855.69;;;;
2020/06/08 04:24:11;;;;;;;5.299999;4.15;;;;;;;9.66;100;94855.69;;;;
2020/06/08 04:25:34;;;;;;;5.299999;4.15;;;;;;;9.66;100;94855.69;;;;
2020/06/08 04:26:48;;;;;;;5.299999;4.15;;;;;;;9.66;100;94855.69;;;;
2020/06/08 04:28:00;;;;;;;4.45;4.05;;;;;;;9.92;100;94864.56;;;;
2020/06/08 04:29:08;;;;;;;4.45;4.05;;;;;;;9.92;100;94864.56;;;;
2020/06/08 04:31:23;;;;;;;4.45;4.05;;;;;;;9.92;100;94864.56;;;;
2020/06/08 04:32:38;;;;;;;4.45;4.05;;;;;;;9.92;100;94864.56;;;;
2020/06/08 04:33:55;;;;;;;4.45;4.05;;;;;;;9.92;100;94864.56;;;;
2020/06/08 04:35:37;;;;;;;4.45;4.05;;;;;;;9.92;100;94864.56;;;;
2020/06/08 04:46:59;;;;;;;4.35;3.95;;;;;;;10.26;100;94871.69;;;;
2020/06/08 04:48:09;;;;;;;4.35;3.95;;;;;;;10.26;100;94871.69;;;;
2020/06/08 04:59:49;;;;;;;4.35;4.05;;;;;;;10.99;100;94888.65;;;;
2020/06/08 05:07:14;;;;;;;4.35;4.05;;;;;;;10.99;100;94888.65;;;;
2020/06/08 05:08:41;;;;;;;4.35;4.05;;;;;;;10.99;100;94888.65;;;;
2020/06/08 05:18:50;;;;;;;4.25;3.95;;;;;;;11.5;100;94885.97;;;;
2020/06/08 05:19:58;;;;;;;4.25;3.95;;;;;;;11.5;100;94885.97;;;;
2020/06/08 05:21:09;;;;;;;3.85;3.45;;;;;;;12.05;100;94894.92;;;;
2020/06/08 05:22:19;;;;;;;3.85;3.45;;;;;;;12.05;100;94894.92;;;;
2020/06/08 05:24:24;;;;;;;3.85;3.45;;;;;;;12.05;100;94894.92;;;;
2020/06/08 05:30:44;;;;;;;3.85;3.45;;;;;;;12.05;100;94894.92;;;;
2020/06/08 05:31:53;;;;;;;3.2;2.900001;;;;;;;12.45;100;94903.02;;;;
2020/06/08 05:33:05;;;;;;;3.2;2.900001;;;;;;;12.45;100;94903.02;;;;
2020/06/08 05:34:44;;;;;;;3.2;2.900001;;;;;;;12.45;100;94903.02;;;;
2020/06/08 05:36:01;;;;;;;3.2;2.900001;;;;;;;12.45;100;94903.02;;;;
2020/06/08 05:37:13;;;;;;;3.2;2.900001;;;;;;;12.45;100;94903.02;;;;
2020/06/08 05:38:28;;;;;;;3.2;2.900001;;;;;;;12.45;100;94903.02;;;;
2020/06/08 05:39:38;;;;;;;3.2;2.900001;;;;;;;12.45;100;94903.02;;;;
2020/06/08 05:40:47;;;;;;;3.2;2.900001;;;;;;;12.45;100;94903.02;;;;
2020/06/08 05:42:10;;;;;;;3.4;3.1;;;;;;;12.95;100;94879.05;;;;
2020/06/08 05:49:37;;;;;;;3.4;3.1;;;;;;;12.95;100;94879.05;;;;
2020/06/08 05:50:49;;;;;;;3.4;3.1;;;;;;;12.95;100;94879.05;;;;
2020/06/08 05:53:23;;;;;;;3.4;3.1;;;;;;;12.95;100;94879.05;;;;
2020/06/08 05:54:32;;;;;;;4.15;3.75;;;;;;;13.22;100;94871.3;;;;
2020/06/08 06:04:02;;;;;;;3.7;3.4;;;;;;;13.53;100;94892.07;;;;
2020/06/08 06:05:16;;;;;;;3.7;3.4;;;;;;;13.53;100;94892.07;;;;
2020/06/08 06:06:25;;;;;;;3.7;3.4;;;;;;;13.53;100;94892.07;;;;
2020/06/08 06:07:37;;;;;;;3.7;3.4;;;;;;;13.53;100;94892.07;;;;
2020/06/08 06:09:17;;;;;;;3.7;3.4;;;;;;;13.53;100;94892.07;;;;
2020/06/08 06:10:31;;;;;;;3.7;3.4;;;;;;;13.53;100;94892.07;;;;
2020/06/08 06:11:39;;;;;;;3.7;3.4;;;;;;;13.53;100;94892.07;;;;
2020/06/08 06:18:14;;;;;;;3.55;3.25;;;;;;;13.92;100;94903.79;;;;
2020/06/08 06:19:55;;;;;;;3.55;3.25;;;;;;;13.92;100;94903.79;;;;
2020/06/08 06:26:17;;;;;;;3.6;3.3;;;;;;;14.4;100;94917.11;;;;
2020/06/08 06:27:48;;;;;;;3.6;3.3;;;;;;;14.4;100;94917.11;;;;
2020/06/08 06:29:01;;;;;;;3.6;3.3;;;;;;;14.4;100;94917.11;;;;
2020/06/08 06:30:13;;;;;;;3.6;3.3;;;;;;;14.4;100;94917.11;;;;
2020/06/08 06:36:34;;;;;;;3.5;3.2;;;;;;;14.93;100;94936.49;;;;
2020/06/08 06:43:26;;;;;;;3.5;3.2;;;;;;;14.93;100;94936.49;;;;
2020/06/08 06:44:34;;;;;;;3.5;3.2;;;;;;;14.93;100;94936.49;;;;
2020/06/08 06:50:53;;;;;;;4.1;3.25;;;;;;;15.41;100;94932.97;;;;
2020/06/08 06:52:35;;;;;;;4.1;3.25;;;;;;;15.41;100;94932.97;;;;
2020/06/08 06:53:43;;;;;;;4.1;3.25;;;;;;;15.41;100;94932.97;;;;
2020/06/08 06:54:51;;;;;;;4.1;3.25;;;;;;;15.41;100;94932.97;;;;
2020/06/08 06:56:08;;;;;;;4.199999;3.7;;;;;;;15.46;100;94926.03;;;;
2020/06/08 06:57:17;;;;;;;4.199999;3.7;;;;;;;15.46;100;94926.03;;;;
2020/06/08 06:58:24;;;;;;;4.199999;3.7;;;;;;;15.46;100;94926.03;;;;
2020/06/08 07:05:16;;;;;;;4.199999;3.7;;;;;;;15.46;100;94926.03;;;;
2020/06/08 07:06:28;;;;;;;4.199999;3.7;;;;;;;15.46;100;94926.03;;;;
2020/06/08 07:07:37;;;;;;;3.9;3;;;;;;;15.58;99.75098;94936.6;;;;
2020/06/08 07:09:51;;;;;;;3.9;3;;;;;;;15.58;99.75098;94936.6;;;;
2020/06/08 07:16:11;;;;;;;3.9;3;;;;;;;15.58;99.75098;94936.6;;;;
2020/06/08 07:17:19;;;;;;;4.55;3.2;;;;;;;15.32;99.47852;94936.77;;;;
2020/06/08 07:18:59;;;;;;;4.55;3.2;;;;;;;15.32;99.47852;94936.77;;;;
2020/06/08 07:21:12;;;;;;;4.55;3.2;;;;;;;15.32;99.47852;94936.77;;;;
2020/06/08 07:38:01;;;;;;;4.250001;3.2;;;;;;;15.21;99.15234;94941.94;;;;
2020/06/08 07:44:26;;;;;;;3.75;3.1;;;;;;;14.91;99.02051;94936.5;;;;
2020/06/08 07:50:49;;;;;;;3.75;3.1;;;;;;;14.91;99.02051;94936.5;;;;
2020/06/08 07:52:14;;;;;;;3.75;3.1;;;;;;;14.91;99.02051;94936.5;;;;
2020/06/08 07:53:33;;;;;;;3.75;3.1;;;;;;;14.91;99.02051;94936.5;;;;
2020/06/08 07:54:44;;;;;;;3.75;3.1;;;;;;;14.91;99.02051;94936.5;;;;
2020/06/08 07:55:54;;;;;;;3.75;3.1;;;;;;;14.91;99.02051;94936.5;;;;
2020/06/08 07:57:05;;;;;;;3.75;3.1;;;;;;;14.91;99.02051;94936.5;;;;
2020/06/08 07:58:14;;;;;;;3.75;3.1;;;;;;;14.91;99.02051;94936.5;;;;
2020/06/08 08:04:48;;;;;;;4.099999;3.7;;;;;;;15.01;97.63574;94944.23;;;;
2020/06/08 08:06:14;;;;;;;4.099999;3.7;;;;;;;15.01;97.63574;94944.23;;;;
2020/06/08 08:07:31;;;;;;;4.099999;3.7;;;;;;;15.01;97.63574;94944.23;;;;
2020/06/08 08:08:53;;;;;;;4.099999;3.7;;;;;;;15.01;97.63574;94944.23;;;;
2020/06/08 08:10:00;;;;;;;4.099999;3.7;;;;;;;15.01;97.63574;94944.23;;;;
2020/06/08 08:11:11;;;;;;;4.1;3.4;;;;;;;15.73;96.3418;94946.64;;;;
2020/06/08 08:12:19;;;;;;;4.1;3.4;;;;;;;15.73;96.3418;94946.64;;;;
2020/06/08 08:14:31;;;;;;;4.1;3.4;;;;;;;15.73;96.3418;94946.64;;;;
2020/06/08 08:15:44;;;;;;;4.1;3.4;;;;;;;15.73;96.3418;94946.64;;;;
2020/06/08 08:17:21;;;;;;;4.1;3.4;;;;;;;15.73;96.3418;94946.64;;;;
2020/06/08 08:18:45;;;;;;;4.1;3.4;;;;;;;15.73;96.3418;94946.64;;;;
2020/06/08 08:31:17;;;;;;;3.4;3;;;;;;;17.43;92.2832;94938.48;;;;
2020/06/08 08:32:31;;;;;;;3.2;2.5;;;;;;;19.63;87.6084;94943.59;;;;
2020/06/08 08:33:44;;;;;;;3.2;2.5;;;;;;;19.63;87.6084;94943.59;;;;
2020/06/08 08:40:03;;;;;;;3.2;2.5;;;;;;;19.63;87.6084;94943.59;;;;
2020/06/08 08:41:17;;;;;;;3.2;2.5;;;;;;;19.63;87.6084;94943.59;;;;
2020/06/08 08:42:25;;;;;;;2.900001;2.1;;;;;;;21.58;83.62598;94931.95;;;;
2020/06/08 08:43:36;;;;;;;2.900001;2.1;;;;;;;21.58;83.62598;94931.95;;;;
2020/06/08 08:48:30;;;;;;;2.900001;2.1;;;;;;;21.58;83.62598;94931.95;;;;
2020/06/08 08:54:54;;;;;;;2.7;1.95;;;;;;;23;77.95801;94932.83;;;;
2020/06/08 08:56:02;;;;;;;2.7;1.95;;;;;;;23;77.95801;94932.83;;;;
2020/06/08 08:57:10;;;;;;;2.7;1.95;;;;;;;23;77.95801;94932.83;;;;
2020/06/08 08:58:21;;;;;;;2.7;1.95;;;;;;;23;77.95801;94932.83;;;;
2020/06/08 08:59:29;;;;;;;2.7;1.95;;;;;;;23;77.95801;94932.83;;;;
2020/06/08 09:00:36;;;;;;;2.7;1.95;;;;;;;23;77.95801;94932.83;;;;
2020/06/08 09:02:52;;;;;;;2.7;1.95;;;;;;;23;77.95801;94932.83;;;;
2020/06/08 09:09:21;;;;;;;3.65;2.1;;;;;;;23.11;75.15039;94926.29;;;;
2020/06/08 09:15:45;;;;;;;3.4;2.05;;;;;;;24.38;70.68848;94920.93;;;;
2020/06/08 09:16:54;;;;;;;3.4;2.05;;;;;;;24.38;70.68848;94920.93;;;;
2020/06/08 09:18:01;;;;;;;3.4;2.05;;;;;;;24.38;70.68848;94920.93;;;;
2020/06/08 09:19:13;;;;;;;3.4;2.05;;;;;;;24.38;70.68848;94920.93;;;;
2020/06/08 09:36:55;;;;;;;4.4;2.45;;;;;;;26.69;62.00586;94927.2;;;;
2020/06/08 09:38:10;;;;;;;4.4;2.45;;;;;;;26.69;62.00586;94927.2;;;;
2020/06/08 09:40:31;;;;;;;4.4;2.45;;;;;;;26.69;62.00586;94927.2;;;;
2020/06/08 09:41:54;;;;;;;4.4;2.45;;;;;;;26.69;62.00586;94927.2;;;;
2020/06/08 09:47:04;;;;;;;3.75;2.1;;;;;;;25.31;62.73926;94927.5;;;;
2020/06/08 09:48:18;;;;;;;3.75;2.1;;;;;;;25.31;62.73926;94927.5;;;;
2020/06/08 09:50:34;;;;;;;3.75;2.1;;;;;;;25.31;62.73926;94927.5;;;;
2020/06/08 09:51:42;;;;;;;3.75;2.1;;;;;;;25.31;62.73926;94927.5;;;;
2020/06/08 09:58:03;;;;;;;2.75;2.4;;;;;;;24.86;61.54492;94923.74;;;;
2020/06/08 10:04:26;;;;;;;2.75;2.4;;;;;;;24.86;61.54492;94923.74;;;;
2020/06/08 10:05:39;;;;;;;2.75;2.4;;;;;;;24.86;61.54492;94923.74;;;;
2020/06/08 10:06:49;;;;;;;2.75;2.4;;;;;;;24.86;61.54492;94923.74;;;;
2020/06/08 10:07:57;;;;;;;5.850001;2.2;;;;;;;25.51;59.54395;94922.96;;;;
2020/06/08 10:09:07;;;;;;;5.850001;2.2;;;;;;;25.51;59.54395;94922.96;;;;
2020/06/08 10:11:16;;;;;;;5.850001;2.2;;;;;;;25.51;59.54395;94922.96;;;;
2020/06/08 10:12:55;;;;;;;5.850001;2.2;;;;;;;25.51;59.54395;94922.96;;;;
2020/06/08 10:19:23;;;;;;;3.5;2.1;;;;;;;24.94;59.31445;94914.98;;;;
2020/06/08 10:20:33;;;;;;;3.5;2.1;;;;;;;24.94;59.31445;94914.98;;;;
2020/06/08 10:22:39;;;;;;;3.5;2.1;;;;;;;24.94;59.31445;94914.98;;;;
2020/06/08 10:23:56;;;;;;;3.5;2.1;;;;;;;24.94;59.31445;94914.98;;;;
2020/06/08 10:25:12;;;;;;;3.5;2.1;;;;;;;24.94;59.31445;94914.98;;;;
2020/06/08 10:26:20;;;;;;;3.5;2.1;;;;;;;24.94;59.31445;94914.98;;;;
2020/06/08 10:27:27;;;;;;;3.5;2.1;;;;;;;24.94;59.31445;94914.98;;;;
2020/06/08 10:28:34;;;;;;;4.25;2.4;;;;;;;24.31;59.52051;94917.72;;;;
2020/06/08 10:29:42;;;;;;;4.25;2.4;;;;;;;24.31;59.52051;94917.72;;;;
2020/06/08 10:42:16;;;;;;;5.05;2.25;;;;;;;23.32;58.90137;94917.24;;;;
2020/06/08 10:43:16;;;;;;;5.05;2.25;;;;;;;23.32;58.90137;94917.24;;;;
2020/06/08 10:44:19;;;;;;;5.05;2.25;;;;;;;23.32;58.90137;94917.24;;;;
2020/06/08 10:45:19;;;;;;;5.05;2.25;;;;;;;23.32;58.90137;94917.24;;;;
2020/06/08 10:46:21;;;;;;;5.05;2.25;;;;;;;23.32;58.90137;94917.24;;;;
2020/06/08 10:47:22;;;;;;;5.05;2.25;;;;;;;23.32;58.90137;94917.24;;;;
2020/06/08 10:48:22;;;;;;;5.05;2.25;;;;;;;23.32;58.90137;94917.24;;;;
2020/06/08 10:49:22;;;;;;;3.5;1.9;;;;;;;23.33;58.90234;94919.85;;;;
2020/06/08 10:50:23;;;;;;;3.5;1.9;;;;;;;23.33;58.90234;94919.85;;;;
2020/06/08 10:51:23;;;;;;;3.5;1.9;;;;;;;23.33;58.90234;94919.85;;;;
2020/06/08 10:52:43;;;;;;;3.5;1.9;;;;;;;23.33;58.90234;94919.85;;;;
2020/06/08 10:53:45;;;;;;;3.5;1.9;;;;;;;23.33;58.90234;94919.85;;;;
2020/06/08 10:54:49;;;;;;;3.5;1.9;;;;;;;23.33;58.90234;94919.85;;;;
2020/06/08 10:56:28;;;;;;;3.5;1.9;;;;;;;23.33;58.90234;94919.85;;;;
2020/06/08 11:04:35;;;;;;;2.85;2;;;;;;;22.53;58.8418;94907.92;;;;
2020/06/08 11:07:02;;;;;;;2.85;2;;;;;;;22.53;58.8418;94907.92;;;;
2020/06/08 11:08:13;;;;;;;2.85;2;;;;;;;22.53;58.8418;94907.92;;;;
2020/06/08 11:14:29;;;;;;;3.6;2.15;;;;;;;22.18;58.44238;94910.74;;;;
2020/06/08 11:15:39;;;;;;;3.6;2.15;;;;;;;22.18;58.44238;94910.74;;;;
2020/06/08 11:16:44;;;;;;;3.6;2.15;;;;;;;22.18;58.44238;94910.74;;;;
2020/06/08 11:18:05;;;;;;;3.6;2.15;;;;;;;22.18;58.44238;94910.74;;;;
2020/06/08 11:19:09;;;;;;;3.6;2.15;;;;;;;22.18;58.44238;94910.74;;;;
2020/06/08 11:20:12;;;;;;;3.6;2.15;;;;;;;22.18;58.44238;94910.74;;;;
2020/06/08 11:26:26;;;;;;;2.05;1.7;;;;;;;23.13;56.44238;94905.72;;;;
2020/06/08 11:28:04;;;;;;;2.05;1.7;;;;;;;23.13;56.44238;94905.72;;;;
2020/06/08 11:29:07;;;;;;;2.05;1.7;;;;;;;23.13;56.44238;94905.72;;;;
2020/06/08 11:30:17;;;;;;;2.05;1.7;;;;;;;23.13;56.44238;94905.72;;;;
2020/06/08 11:36:30;;;;;;;3;1.8;;;;;;;23.69;55.64746;94910.66;;;;
2020/06/08 11:37:32;;;;;;;3;1.8;;;;;;;23.69;55.64746;94910.66;;;;
2020/06/08 11:38:39;;;;;;;3;1.8;;;;;;;23.69;55.64746;94910.66;;;;
2020/06/08 11:39:46;;;;;;;3;1.8;;;;;;;23.69;55.64746;94910.66;;;;
2020/06/08 11:40:53;;;;;;;3;1.8;;;;;;;23.69;55.64746;94910.66;;;;
2020/06/08 11:42:32;;;;;;;3;1.8;;;;;;;23.69;55.64746;94910.66;;;;
2020/06/08 11:43:45;;;;;;;3.45;2;;;;;;;24.37;55.3877;94908.7;;;;
2020/06/08 11:44:51;;;;;;;3.45;2;;;;;;;24.37;55.3877;94908.7;;;;
2020/06/08 11:45:53;;;;;;;3.45;2;;;;;;;24.37;55.3877;94908.7;;;;
2020/06/08 11:47:00;;;;;;;3.45;2;;;;;;;24.37;55.3877;94908.7;;;;
2020/06/08 11:48:01;;;;;;;3.45;2;;;;;;;24.37;55.3877;94908.7;;;;
2020/06/08 11:49:02;;;;;;;3.45;2;;;;;;;24.37;55.3877;94908.7;;;;
2020/06/08 11:50:04;;;;;;;3.45;2;;;;;;;24.37;55.3877;94908.7;;;;
2020/06/08 11:51:05;;;;;;;3.45;2;;;;;;;24.37;55.3877;94908.7;;;;
2020/06/08 11:52:05;;;;;;;3.45;2;;;;;;;24.37;55.3877;94908.7;;;;
2020/06/08 11:53:06;;;;;;;4.750001;2;;;;;;;25.59;52.85254;94901.5;;;;
2020/06/08 11:54:09;;;;;;;4.750001;2;;;;;;;25.59;52.85254;94901.5;;;;
2020/06/08 11:55:13;;;;;;;4.750001;2;;;;;;;25.59;52.85254;94901.5;;;;
2020/06/08 11:56:13;;;;;;;4.750001;2;;;;;;;25.59;52.85254;94901.5;;;;
2020/06/08 11:57:14;;;;;;;4.750001;2;;;;;;;25.59;52.85254;94901.5;;;;
2020/06/08 11:58:14;;;;;;;4.750001;2;;;;;;;25.59;52.85254;94901.5;;;;
2020/06/08 11:59:15;;;;;;;4.750001;2;;;;;;;25.59;52.85254;94901.5;;;;
2020/06/08 12:00:15;;;;;;;4.750001;2;;;;;;;25.59;52.85254;94901.5;;;;
2020/06/08 12:01:16;;;;;;;4.750001;2;;;;;;;25.59;52.85254;94901.5;;;;
2020/06/08 12:02:16;;;;;;;4.750001;2;;;;;;;25.59;52.85254;94901.5;;;;
2020/06/08 12:03:17;;;;;;;4.750001;2;;;;;;;25.59;52.85254;94901.5;;;;
2020/06/08 12:04:17;;;;;;;2.55;1.9;;;;;;;25.81;51.25098;94891.86;;;;
2020/06/08 12:05:17;;;;;;;2.55;1.9;;;;;;;25.81;51.25098;94891.86;;;;
2020/06/08 12:06:18;;;;;;;2.55;1.9;;;;;;;25.81;51.25098;94891.86;;;;
2020/06/08 12:07:18;;;;;;;2.55;1.9;;;;;;;25.81;51.25098;94891.86;;;;
2020/06/08 12:08:22;;;;;;;2.55;1.9;;;;;;;25.81;51.25098;94891.86;;;;
2020/06/08 12:14:38;;;;;;;2.900001;1.8;;;;;;;25.15;51.41016;94891.91;;;;
2020/06/08 12:15:39;;;;;;;2.900001;1.8;;;;;;;25.15;51.41016;94891.91;;;;
2020/06/08 12:16:40;;;;;;;2.900001;1.8;;;;;;;25.15;51.41016;94891.91;;;;
2020/06/08 12:17:42;;;;;;;2.900001;1.8;;;;;;;25.15;51.41016;94891.91;;;;
2020/06/08 12:18:47;;;;;;;2.900001;1.8;;;;;;;25.15;51.41016;94891.91;;;;
2020/06/08 12:30:18;;;;;;;4.4;2.1;;;;;;;24.43;50.90625;94880.75;;;;
2020/06/08 12:36:48;;;;;;;2.05;1.85;;;;;;;23.01;51.36523;94885.69;;;;
2020/06/08 12:39:22;;;;;;;2.05;1.85;;;;;;;23.01;51.36523;94885.69;;;;
2020/06/08 12:41:15;;;;;;;2.05;1.85;;;;;;;23.01;51.36523;94885.69;;;;
2020/06/08 12:48:40;;;;;;;4.550001;2.1;;;;;;;22.08;52.05566;94871.94;;;;
2020/06/08 12:49:51;;;;;;;4.550001;2.1;;;;;;;22.08;52.05566;94871.94;;;;
2020/06/08 12:50:55;;;;;;;4.550001;2.1;;;;;;;22.08;52.05566;94871.94;;;;
2020/06/08 12:52:03;;;;;;;4.550001;2.1;;;;;;;22.08;52.05566;94871.94;;;;
2020/06/08 12:53:10;;;;;;;4.550001;2.1;;;;;;;22.08;52.05566;94871.94;;;;
2020/06/08 13:11:26;;;;;;;4.4;2;;;;;;;20.93;53.19043;94870.2;;;;
2020/06/08 13:23:04;;;;;;;3.35;1.8;;;;;;;21.1;52.22754;94867.38;;;;
2020/06/08 13:30:18;;;;;;;3.65;2.05;;;;;;;21.72;51.18457;94855.31;;;;
2020/06/08 13:31:28;;;;;;;3.65;2.05;;;;;;;21.72;51.18457;94855.31;;;;
2020/06/08 13:33:51;;;;;;;3.65;2.05;;;;;;;21.72;51.18457;94855.31;;;;
2020/06/08 13:35:20;;;;;;;3.65;2.05;;;;;;;21.72;51.18457;94855.31;;;;
2020/06/08 13:44:52;;;;;;;2.7;2;;;;;;;22.44;50.63574;94860.31;;;;
2020/06/08 13:47:10;;;;;;;2.7;2;;;;;;;22.44;50.63574;94860.31;;;;
2020/06/08 13:48:25;;;;;;;2.7;2;;;;;;;22.44;50.63574;94860.31;;;;
2020/06/08 13:54:44;;;;;;;3.05;1.8;;;;;;;22.72;50.18066;94876.26;;;;
2020/06/08 13:56:08;;;;;;;3.05;1.8;;;;;;;22.72;50.18066;94876.26;;;;
2020/06/08 13:57:26;;;;;;;3.05;1.8;;;;;;;22.72;50.18066;94876.26;;;;
2020/06/08 14:08:58;;;;;;;3.05;2.25;;;;;;;22.73;50.16992;94869.23;;;;
2020/06/08 14:15:24;;;;;;;3;2.1;;;;;;;23.42;49.46973;94861.41;;;;
2020/06/08 14:22:15;;;;;;;2.7;2.1;;;;;;;23.28;48.68848;94852.48;;;;
2020/06/08 14:28:28;;;;;;;2.7;2.1;;;;;;;23.28;48.68848;94852.48;;;;
2020/06/08 14:29:36;;;;;;;2.7;2.1;;;;;;;23.28;48.68848;94852.48;;;;
2020/06/08 14:30:51;;;;;;;2.7;2.1;;;;;;;23.28;48.68848;94852.48;;;;
2020/06/08 14:37:24;;;;;;;3.5;1.9;;;;;;;22.9;49.07031;94841.69;;;;
2020/06/08 14:54:11;;;;;;;2.7;2.1;;;;;;;23.32;49.16016;94850.7;;;;
2020/06/08 14:55:21;;;;;;;2.7;2.1;;;;;;;23.32;49.16016;94850.7;;;;
2020/06/08 14:56:27;;;;;;;2.7;2.1;;;;;;;23.32;49.16016;94850.7;;;;
2020/06/08 14:58:04;;;;;;;2.7;2.1;;;;;;;23.32;49.16016;94850.7;;;;
2020/06/08 15:09:38;;;;;;;3.3;2.05;;;;;;;22.97;48.19043;94842.02;;;;
2020/06/08 15:11:18;;;;;;;3.3;2.05;;;;;;;22.97;48.19043;94842.02;;;;
2020/06/08 15:12:27;;;;;;;3.3;2.05;;;;;;;22.97;48.19043;94842.02;;;;
2020/06/08 15:14:03;;;;;;;3.3;2.05;;;;;;;22.97;48.19043;94842.02;;;;
2020/06/08 15:15:21;;;;;;;2.95;2;;;;;;;21.64;48.9873;94843.14;;;;
2020/06/08 15:22:16;;;;;;;2.95;2;;;;;;;21.64;48.9873;94843.14;;;;
2020/06/08 15:28:38;;;;;;;3.8;2.5;;;;;;;20.54;49.76074;94841.2;;;;